Time;durP1;ratioP1;P1;durP2;ratioP2;P2;SDS_P1;SDS_P2;PMS_P1;PMS_P2;Temp;Humidity;BMP_temperature;BMP_pressure;BME280_temperature;BME280_humidity;BME280_pressure;Samples;Min_cycle;Max_cycle;Signal;HPM_P1;HPM_P2
2022/01/03 00:01:29;;;;;;;4.10;1.50;;;10.20;99.90;;;;;;5002259;28;20026;-65
2022/01/03 00:03:55;;;;;;;2.67;1.50;;;10.10;99.90;;;;;;5005010;28;20030;-64
2022/01/03 00:06:21;;;;;;;15.95;3.25;;;10.10;99.90;;;;;;5002590;28;20467;-64
2022/01/03 00:08:47;;;;;;;3.65;1.80;;;10.20;99.90;;;;;;5015530;28;20045;-64
2022/01/03 00:11:16;;;;;;;4.97;1.40;;;10.20;99.90;;;;;;5007625;28;20053;-64
2022/01/03 00:13:44;;;;;;;3.40;1.55;;;10.20;99.90;;;;;;5003343;28;20037;-64
2022/01/03 00:16:10;;;;;;;5.70;1.65;;;10.20;99.90;;;;;;5007526;28;20030;-64
2022/01/03 00:18:36;;;;;;;6.10;1.73;;;10.20;99.90;;;;;;5005026;28;20604;-64
2022/01/03 00:21:06;;;;;;;4.20;1.40;;;10.30;99.90;;;;;;5008653;28;20202;-64
2022/01/03 00:23:35;;;;;;;3.75;1.88;;;10.30;99.90;;;;;;5002170;28;20030;-65
2022/01/03 00:26:02;;;;;;;7.53;1.98;;;10.30;99.90;;;;;;5001665;28;20030;-64
2022/01/03 00:28:32;;;;;;;5.18;1.35;;;10.30;99.90;;;;;;5001976;28;20122;-64
2022/01/03 00:30:58;;;;;;;3.05;1.55;;;10.30;99.90;;;;;;5005084;28;20026;-64
2022/01/03 00:33:31;;;;;;;2.33;1.30;;;10.30;99.90;;;;;;5002385;28;20080;-64
2022/01/03 00:36:02;;;;;;;3.75;1.60;;;10.40;99.90;;;;;;5003719;28;20366;-64
2022/01/03 00:38:34;;;;;;;5.28;1.70;;;10.30;99.90;;;;;;5000050;28;20030;-64
2022/01/03 00:41:01;;;;;;;6.72;1.40;;;10.30;99.90;;;;;;5002032;28;20026;-64
2022/01/03 00:43:33;;;;;;;7.03;1.90;;;10.30;99.90;;;;;;5002107;28;20034;-64
2022/01/03 00:46:02;;;;;;;8.88;1.60;;;10.30;99.90;;;;;;4996961;28;20355;-65
2022/01/03 00:48:34;;;;;;;5.15;1.70;;;10.20;99.90;;;;;;5005358;28;20022;-64
2022/01/03 00:51:03;;;;;;;4.43;1.42;;;10.20;99.90;;;;;;4998668;28;20026;-65
2022/01/03 00:53:32;;;;;;;4.35;1.30;;;10.10;99.90;;;;;;5002234;28;20088;-65
2022/01/03 00:56:01;;;;;;;3.47;1.30;;;10.10;99.90;;;;;;5002726;28;21747;-65
2022/01/03 00:58:49;;;;;;;5.53;1.52;;;10.00;99.90;;;;;;5016542;28;20141;-65
2022/01/03 01:01:18;;;;;;;1.65;0.80;;;10.00;99.90;;;;;;5004894;28;20034;-64
2022/01/03 01:03:48;;;;;;;2.53;0.90;;;9.90;99.90;;;;;;5005362;28;20026;-64
2022/01/03 01:06:14;;;;;;;5.47;0.90;;;8.90;99.90;;;;;;5019805;28;20030;-64
2022/01/03 01:08:42;;;;;;;2.25;0.80;;;8.30;99.90;;;;;;5003975;28;20125;-64
2022/01/03 01:11:08;;;;;;;3.88;0.90;;;8.10;99.90;;;;;;5000231;28;20037;-64
2022/01/03 01:13:36;;;;;;;2.78;0.80;;;7.90;99.90;;;;;;5004014;28;20037;-64
2022/01/03 01:16:06;;;;;;;0.88;0.38;;;7.80;99.90;;;;;;5004540;28;20437;-64
2022/01/03 01:18:36;;;;;;;1.13;0.60;;;7.80;99.90;;;;;;4998525;28;20018;-64
2022/01/03 01:21:05;;;;;;;1.08;0.40;;;7.80;99.90;;;;;;5003033;28;20092;-64
2022/01/03 01:23:30;;;;;;;3.55;0.60;;;7.80;99.90;;;;;;5000273;28;20521;-64
2022/01/03 01:28:41;;;;;;;0.85;0.60;;;7.70;99.90;;;;;;4997697;28;20030;-64
2022/01/03 01:31:08;;;;;;;1.98;0.63;;;7.70;99.90;;;;;;5003484;28;20030;-64
2022/01/03 01:33:37;;;;;;;0.60;0.45;;;7.70;99.90;;;;;;5002662;28;20507;-64
2022/01/03 01:36:05;;;;;;;1.20;0.50;;;7.70;99.90;;;;;;5004037;28;20022;-64
2022/01/03 01:38:34;;;;;;;1.05;0.50;;;7.70;99.90;;;;;;5002833;28;20030;-65
2022/01/03 01:41:03;;;;;;;1.05;0.50;;;7.70;99.90;;;;;;5001251;28;20026;-66
2022/01/03 01:43:46;;;;;;;1.02;0.40;;;7.70;99.90;;;;;;4999402;28;20061;-65
2022/01/03 01:46:15;;;;;;;2.15;0.50;;;7.70;99.90;;;;;;4999028;28;20787;-65
2022/01/03 01:48:44;;;;;;;1.17;0.52;;;7.70;99.90;;;;;;5003377;28;20061;-65
2022/01/03 01:51:13;;;;;;;0.52;0.40;;;7.60;99.90;;;;;;5000169;28;20429;-65
2022/01/03 01:53:55;;;;;;;1.80;0.40;;;7.70;99.90;;;;;;5003104;28;20041;-66
2022/01/03 01:56:27;;;;;;;1.40;0.40;;;7.70;99.90;;;;;;5003670;28;20045;-66
2022/01/03 01:59:20;;;;;;;0.40;0.40;;;7.70;99.90;;;;;;5003442;28;20026;-66
2022/01/03 02:02:26;;;;;;;0.30;0.30;;;7.70;99.90;;;;;;5019925;28;20057;-65
2022/01/03 02:05:08;;;;;;;0.57;0.40;;;7.70;99.90;;;;;;4999766;28;20029;-65
2022/01/03 02:08:27;;;;;;;1.83;0.55;;;7.70;99.90;;;;;;4999637;28;20490;-64
2022/01/03 02:11:05;;;;;;;0.50;0.40;;;7.70;99.90;;;;;;5003144;28;20046;-65
2022/01/03 02:13:31;;;;;;;1.00;0.40;;;7.70;99.90;;;;;;5003109;28;24525;-65
2022/01/03 02:16:03;;;;;;;0.85;0.50;;;7.70;99.90;;;;;;5001700;28;20030;-65
2022/01/03 02:18:30;;;;;;;1.55;0.52;;;7.60;99.90;;;;;;5002919;28;20027;-65
2022/01/03 02:20:56;;;;;;;0.73;0.47;;;7.60;99.90;;;;;;5003887;28;20505;-66
2022/01/03 02:23:22;;;;;;;0.45;0.30;;;7.60;99.90;;;;;;4999739;28;20038;-65
2022/01/03 02:25:47;;;;;;;2.28;0.50;;;7.50;99.90;;;;;;5002262;28;20079;-64
2022/01/03 02:28:13;;;;;;;1.05;0.30;;;7.50;99.90;;;;;;5001501;28;20120;-65
2022/01/03 02:30:39;;;;;;;1.70;0.30;;;7.50;99.90;;;;;;5006581;28;20042;-65
2022/01/03 02:33:05;;;;;;;2.50;0.38;;;7.60;99.90;;;;;;5005277;28;20041;-65
2022/01/03 02:35:38;;;;;;;0.57;0.40;;;7.60;99.90;;;;;;5014846;28;20506;-65
2022/01/03 02:38:04;;;;;;;0.43;0.30;;;7.60;99.90;;;;;;5003423;28;20036;-66
2022/01/03 02:40:30;;;;;;;0.32;0.32;;;7.60;99.90;;;;;;5009395;28;20065;-65
2022/01/03 02:43:03;;;;;;;1.02;0.50;;;7.60;99.90;;;;;;5006199;28;20057;-65
2022/01/03 02:45:29;;;;;;;0.68;0.40;;;7.60;99.90;;;;;;5004353;28;20497;-65
2022/01/03 02:48:04;;;;;;;2.75;0.40;;;7.60;99.90;;;;;;5005464;28;20034;-65
2022/01/03 02:50:31;;;;;;;1.58;0.30;;;7.60;99.90;;;;;;5000848;28;20497;-65
2022/01/03 02:52:57;;;;;;;2.00;0.50;;;7.60;99.90;;;;;;5004585;28;20122;-65
2022/01/03 02:55:23;;;;;;;4.00;0.60;;;7.60;99.90;;;;;;5006896;28;20145;-65
2022/01/03 02:57:51;;;;;;;0.60;0.60;;;7.60;99.90;;;;;;5002719;28;20498;-66
2022/01/03 03:00:26;;;;;;;1.98;0.52;;;7.50;99.90;;;;;;5006616;28;20025;-66
2022/01/03 03:03:03;;;;;;;0.60;0.50;;;7.60;99.90;;;;;;5004374;28;20478;-64
2022/01/03 03:05:32;;;;;;;1.67;0.60;;;7.60;99.90;;;;;;4999890;28;20046;-65
2022/01/03 03:07:58;;;;;;;2.47;0.65;;;7.60;99.90;;;;;;5002632;28;20113;-65
2022/01/03 03:10:25;;;;;;;1.42;0.50;;;7.60;99.90;;;;;;5004608;28;20777;-65
2022/01/03 03:13:04;;;;;;;2.35;0.70;;;7.60;99.90;;;;;;5008755;28;20049;-65
2022/01/03 03:15:30;;;;;;;1.88;0.60;;;7.70;99.90;;;;;;5004790;28;20101;-64
2022/01/03 03:18:05;;;;;;;2.00;0.60;;;7.60;99.90;;;;;;5009422;28;20073;-64
2022/01/03 03:20:32;;;;;;;1.40;1.13;;;7.60;99.90;;;;;;5002325;28;20022;-65
2022/01/03 03:23:05;;;;;;;3.50;0.60;;;7.60;99.90;;;;;;5008857;28;20022;-65
2022/01/03 03:25:35;;;;;;;4.38;0.80;;;7.60;99.90;;;;;;5004225;28;20513;-65
2022/01/03 03:28:05;;;;;;;1.52;0.77;;;7.70;99.90;;;;;;5005104;28;20473;-65
2022/01/03 03:30:37;;;;;;;2.10;0.95;;;7.70;99.90;;;;;;5005817;28;20033;-65
2022/01/03 03:33:13;;;;;;;4.55;1.63;;;7.70;99.90;;;;;;5012125;28;20053;-66
2022/01/03 03:35:39;;;;;;;1.95;0.80;;;7.70;99.90;;;;;;5006646;28;20460;-65
2022/01/03 03:38:05;;;;;;;2.58;0.70;;;7.70;99.90;;;;;;5003548;28;20501;-65
2022/01/03 03:40:31;;;;;;;1.73;0.70;;;7.80;99.90;;;;;;5005964;28;20108;-65
2022/01/03 03:42:57;;;;;;;2.50;0.73;;;7.80;99.90;;;;;;4998184;28;20030;-65
2022/01/03 03:45:23;;;;;;;2.63;0.70;;;7.90;99.90;;;;;;5008073;28;20062;-65
2022/01/03 03:47:49;;;;;;;2.58;0.60;;;8.00;99.90;;;;;;5006404;28;20029;-65
2022/01/03 03:50:15;;;;;;;2.10;0.70;;;8.00;99.90;;;;;;5006803;28;20034;-65
2022/01/03 03:52:40;;;;;;;4.65;0.82;;;8.10;99.90;;;;;;5005827;28;20040;-65
2022/01/03 03:55:07;;;;;;;3.85;0.73;;;8.10;99.90;;;;;;5008832;28;20034;-65
2022/01/03 03:57:33;;;;;;;1.33;1.17;;;8.10;99.90;;;;;;5002628;28;20045;-66
2022/01/03 03:59:59;;;;;;;2.08;0.70;;;8.20;99.90;;;;;;5008176;28;20029;-65
2022/01/03 04:02:24;;;;;;;3.50;0.90;;;8.20;99.90;;;;;;5004614;28;20041;-65
2022/01/03 04:04:50;;;;;;;2.17;0.70;;;8.20;99.90;;;;;;5005708;28;20029;-66
2022/01/03 04:07:22;;;;;;;3.60;0.93;;;8.20;99.90;;;;;;5007497;28;20037;-66
2022/01/03 04:09:48;;;;;;;2.08;0.65;;;8.30;99.90;;;;;;5003888;28;20044;-64
2022/01/03 04:12:14;;;;;;;2.47;0.93;;;8.30;99.90;;;;;;5007477;28;20030;-65
2022/01/03 04:14:39;;;;;;;1.33;0.80;;;8.30;99.90;;;;;;5003543;28;20052;-65
2022/01/03 04:17:05;;;;;;;1.17;0.60;;;8.30;99.90;;;;;;5001122;28;20514;-65
2022/01/03 04:19:30;;;;;;;3.03;0.93;;;8.30;99.90;;;;;;5004619;28;20045;-64
2022/01/03 04:21:56;;;;;;;1.88;1.00;;;8.30;99.90;;;;;;5005540;28;20026;-65
2022/01/03 04:24:22;;;;;;;2.63;0.80;;;8.40;99.90;;;;;;5004601;28;20088;-65
2022/01/03 04:26:49;;;;;;;2.88;0.90;;;8.40;99.90;;;;;;5004448;28;20018;-65
2022/01/03 04:29:15;;;;;;;4.47;0.85;;;8.30;99.90;;;;;;5005021;28;20563;-65
2022/01/03 04:31:40;;;;;;;2.40;0.77;;;8.30;99.90;;;;;;5003373;28;20030;-65
2022/01/03 04:34:08;;;;;;;2.70;0.70;;;8.30;99.90;;;;;;5008324;28;20030;-64
2022/01/03 04:36:34;;;;;;;4.35;0.88;;;8.30;99.90;;;;;;5002658;28;20034;-66
2022/01/03 04:39:00;;;;;;;2.00;0.77;;;8.20;99.90;;;;;;5007081;28;20025;-66
2022/01/03 04:41:25;;;;;;;1.98;0.60;;;8.20;99.90;;;;;;5004015;28;20027;-64
2022/01/03 04:43:51;;;;;;;3.15;0.90;;;8.10;99.90;;;;;;5006487;28;20065;-64
2022/01/03 04:46:17;;;;;;;3.92;0.82;;;8.10;99.90;;;;;;5003721;28;20034;-65
2022/01/03 04:48:43;;;;;;;3.50;0.85;;;8.20;99.90;;;;;;5007970;28;20026;-65
2022/01/03 04:51:09;;;;;;;1.65;0.68;;;8.20;99.90;;;;;;5000411;28;20018;-65
2022/01/03 04:53:39;;;;;;;3.13;0.80;;;8.10;99.90;;;;;;5003522;28;20034;-65
2022/01/03 04:56:09;;;;;;;3.38;0.82;;;8.10;99.90;;;;;;5002066;28;20042;-66
2022/01/03 04:58:35;;;;;;;2.83;0.90;;;8.10;99.90;;;;;;5007134;28;20030;-64
2022/01/03 05:01:01;;;;;;;4.32;0.93;;;8.10;99.90;;;;;;5002693;28;20026;-66
2022/01/03 05:03:26;;;;;;;4.43;0.90;;;8.10;99.90;;;;;;5001747;28;20030;-65
2022/01/03 05:05:52;;;;;;;3.65;0.90;;;8.10;99.90;;;;;;5003537;28;20022;-65
2022/01/03 05:08:31;;;;;;;6.03;1.25;;;8.00;99.90;;;;;;5003804;28;20088;-65
2022/01/03 05:11:00;;;;;;;4.63;0.88;;;8.10;99.90;;;;;;5003239;28;20022;-65
2022/01/03 05:13:27;;;;;;;1.25;0.70;;;8.00;99.90;;;;;;5000721;28;20030;-65
2022/01/03 05:15:53;;;;;;;5.28;1.13;;;8.00;99.90;;;;;;5002298;28;20030;-65
2022/01/03 05:18:18;;;;;;;5.22;0.70;;;8.00;99.90;;;;;;5004729;28;20023;-66
2022/01/03 05:20:44;;;;;;;4.93;0.80;;;8.00;99.90;;;;;;5002397;28;20018;-64
2022/01/03 05:23:10;;;;;;;4.22;1.40;;;8.00;99.90;;;;;;5004410;28;20041;-66
2022/01/03 05:25:36;;;;;;;1.25;0.85;;;8.00;99.90;;;;;;5002949;28;20023;-65
2022/01/03 05:28:02;;;;;;;5.65;1.00;;;8.00;99.90;;;;;;5000555;28;20035;-66
2022/01/03 05:30:27;;;;;;;2.67;0.98;;;8.00;99.90;;;;;;5003731;28;20021;-65
2022/01/03 05:32:53;;;;;;;2.78;0.80;;;8.00;99.90;;;;;;5009047;28;20020;-65
2022/01/03 05:35:19;;;;;;;4.03;0.73;;;8.00;99.90;;;;;;5005618;28;20069;-65
2022/01/03 05:37:44;;;;;;;3.80;0.88;;;8.00;99.90;;;;;;5004922;28;20026;-65
2022/01/03 05:40:11;;;;;;;4.95;1.00;;;8.00;99.90;;;;;;5003418;28;20034;-65
2022/01/03 05:42:37;;;;;;;2.92;0.70;;;8.00;99.90;;;;;;5002093;28;20145;-65
2022/01/03 05:45:04;;;;;;;2.55;0.80;;;8.00;99.90;;;;;;5006671;28;20064;-65
2022/01/03 05:47:30;;;;;;;3.78;0.77;;;8.10;99.90;;;;;;5006674;28;20033;-65
2022/01/03 05:49:56;;;;;;;3.72;0.90;;;8.00;99.90;;;;;;5001118;28;20121;-65
2022/01/03 05:52:34;;;;;;;5.18;1.13;;;8.00;99.90;;;;;;5002664;28;20034;-65
2022/01/03 05:55:00;;;;;;;7.28;1.10;;;7.90;99.90;;;;;;5004664;28;20046;-64
2022/01/03 05:57:35;;;;;;;2.58;0.88;;;7.90;99.90;;;;;;5004019;28;20026;-65
2022/01/03 06:00:03;;;;;;;2.85;0.80;;;7.90;99.90;;;;;;5003449;28;20105;-65
2022/01/03 06:02:34;;;;;;;2.50;0.75;;;7.80;99.90;;;;;;5002944;28;20034;-66
2022/01/03 06:05:02;;;;;;;6.25;0.80;;;7.80;99.90;;;;;;5016517;28;20023;-65
2022/01/03 06:07:27;;;;;;;4.22;0.95;;;7.80;99.90;;;;;;5002330;28;20091;-66
2022/01/03 06:09:53;;;;;;;7.32;0.80;;;7.80;99.90;;;;;;5001594;28;20517;-65
2022/01/03 06:12:19;;;;;;;5.85;0.90;;;7.80;99.90;;;;;;5002437;28;20054;-65
2022/01/03 06:14:46;;;;;;;1.00;0.70;;;7.80;99.90;;;;;;5003223;28;20084;-65
2022/01/03 06:17:12;;;;;;;2.15;0.75;;;7.80;99.90;;;;;;5004270;28;20501;-65
2022/01/03 06:19:38;;;;;;;2.85;1.00;;;7.80;99.90;;;;;;5004242;28;20619;-65
2022/01/03 06:22:07;;;;;;;2.45;0.82;;;7.80;99.90;;;;;;4997242;28;20026;-66
2022/01/03 06:24:33;;;;;;;6.85;1.00;;;7.80;99.90;;;;;;5006133;28;20014;-66
2022/01/03 06:26:59;;;;;;;7.65;0.80;;;7.80;99.90;;;;;;5002196;28;20045;-65
2022/01/03 06:29:24;;;;;;;1.63;0.85;;;7.70;99.90;;;;;;5000585;28;20525;-65
2022/01/03 06:31:51;;;;;;;8.90;1.80;;;7.70;99.90;;;;;;5004324;28;20030;-65
2022/01/03 06:34:17;;;;;;;4.00;0.85;;;7.60;99.90;;;;;;5020758;28;20116;-66
2022/01/03 06:36:42;;;;;;;2.30;0.90;;;7.60;99.90;;;;;;5002640;28;20433;-64
2022/01/03 06:39:11;;;;;;;2.85;1.00;;;7.50;99.90;;;;;;5003743;28;20017;-65
2022/01/03 06:41:37;;;;;;;5.63;1.17;;;7.50;99.90;;;;;;4999540;28;20080;-66
2022/01/03 06:44:03;;;;;;;5.15;0.90;;;7.40;99.90;;;;;;5001065;28;20509;-66
2022/01/03 06:46:29;;;;;;;7.40;0.95;;;7.50;99.90;;;;;;5001159;28;20035;-66
2022/01/03 06:48:55;;;;;;;4.68;1.25;;;7.50;99.90;;;;;;5001919;28;20026;-67
2022/01/03 06:51:21;;;;;;;1.67;1.55;;;7.40;99.90;;;;;;4999298;28;20033;-66
2022/01/03 06:53:46;;;;;;;6.05;1.60;;;7.40;99.90;;;;;;5002654;28;20117;-66
2022/01/03 06:56:12;;;;;;;4.68;1.70;;;7.30;99.90;;;;;;5000505;28;20117;-67
2022/01/03 06:58:38;;;;;;;6.07;0.95;;;7.30;99.90;;;;;;5002773;28;20473;-66
2022/01/03 07:01:04;;;;;;;7.55;1.23;;;7.20;99.90;;;;;;5002604;28;21428;-66
2022/01/03 07:03:30;;;;;;;4.82;1.02;;;7.20;99.90;;;;;;5000362;28;20486;-67
2022/01/03 07:05:56;;;;;;;13.27;3.22;;;7.10;99.90;;;;;;5001998;28;20031;-67
2022/01/03 07:08:22;;;;;;;5.57;0.98;;;7.10;99.90;;;;;;4998740;28;20022;-66
2022/01/03 07:10:48;;;;;;;4.82;2.20;;;7.10;99.90;;;;;;5000325;28;20088;-66
2022/01/03 07:13:14;;;;;;;5.50;1.42;;;7.10;99.90;;;;;;4998793;28;20053;-67
2022/01/03 07:21:10;;;;;;;3.22;1.10;;;7.00;99.90;;;;;;5006727;28;20029;-67
2022/01/03 07:23:36;;;;;;;4.82;1.45;;;7.00;99.90;;;;;;5004545;28;20386;-66
2022/01/03 07:26:01;;;;;;;5.82;2.22;;;7.00;99.90;;;;;;5005906;28;20038;-67
2022/01/03 07:28:27;;;;;;;3.60;1.75;;;7.00;99.90;;;;;;5003116;28;20129;-66
2022/01/03 07:30:53;;;;;;;6.10;1.05;;;7.00;99.90;;;;;;5006236;28;20042;-66
2022/01/03 07:33:18;;;;;;;3.42;0.80;;;7.10;99.90;;;;;;5006496;28;20473;-68
2022/01/03 07:35:44;;;;;;;3.90;0.90;;;7.10;99.90;;;;;;5005552;28;20038;-66
2022/01/03 07:38:10;;;;;;;5.80;1.50;;;7.10;99.90;;;;;;5003143;28;20026;-67
2022/01/03 07:40:35;;;;;;;3.78;0.85;;;7.10;99.90;;;;;;5006252;28;20113;-66
2022/01/03 07:43:01;;;;;;;3.95;0.80;;;7.10;99.90;;;;;;5006335;28;20113;-66
2022/01/03 07:45:27;;;;;;;4.47;1.08;;;7.10;99.90;;;;;;5003122;28;20027;-67
2022/01/03 07:47:53;;;;;;;4.35;0.93;;;7.10;99.90;;;;;;5008618;28;20041;-66
2022/01/03 07:50:19;;;;;;;1.90;0.90;;;7.20;99.90;;;;;;5003443;28;20029;-66
2022/01/03 07:52:45;;;;;;;3.83;1.70;;;7.20;99.90;;;;;;5020415;28;20104;-66
2022/01/03 07:55:13;;;;;;;3.65;0.70;;;7.30;99.90;;;;;;5007702;28;20493;-67
2022/01/03 07:57:39;;;;;;;3.22;0.80;;;7.50;99.90;;;;;;5004422;28;20034;-67
2022/01/03 08:00:07;;;;;;;3.38;0.80;;;7.70;99.90;;;;;;5002482;28;20474;-67
2022/01/03 08:02:33;;;;;;;2.45;1.00;;;7.90;99.90;;;;;;5003860;28;20457;-67
2022/01/03 08:04:58;;;;;;;2.80;0.68;;;8.10;99.90;;;;;;5006897;28;20058;-66
2022/01/03 08:07:24;;;;;;;1.75;0.80;;;8.40;99.90;;;;;;5002877;28;20030;-66
2022/01/03 08:09:50;;;;;;;2.03;1.05;;;8.70;99.90;;;;;;5001438;28;20030;-67
2022/01/03 08:12:16;;;;;;;4.85;1.38;;;9.10;99.90;;;;;;5003863;28;20050;-68
2022/01/03 08:14:42;;;;;;;2.00;0.70;;;9.50;99.90;;;;;;5009180;28;20096;-66
2022/01/03 08:17:08;;;;;;;2.10;0.50;;;10.00;99.90;;;;;;5002777;28;20026;-66
2022/01/03 08:19:34;;;;;;;5.38;0.70;;;10.60;99.90;;;;;;5000020;28;20025;-67
2022/01/03 08:22:00;;;;;;;1.85;0.80;;;11.10;99.90;;;;;;5003178;28;20069;-67
2022/01/03 08:24:25;;;;;;;2.38;0.73;;;11.60;99.90;;;;;;5006505;28;20410;-68
2022/01/03 08:26:51;;;;;;;1.83;0.70;;;12.10;99.90;;;;;;5019459;28;20038;-67
2022/01/03 08:29:17;;;;;;;2.55;0.95;;;12.30;99.90;;;;;;5005842;28;20473;-66
2022/01/03 08:31:43;;;;;;;1.83;0.77;;;12.30;99.90;;;;;;5004088;28;20510;-66
2022/01/03 08:34:08;;;;;;;3.97;1.00;;;12.70;99.90;;;;;;4998761;28;20058;-67
2022/01/03 08:36:34;;;;;;;2.63;0.77;;;13.60;99.90;;;;;;5002558;28;20038;-68
2022/01/03 08:38:59;;;;;;;3.10;0.98;;;14.60;99.90;;;;;;5004374;28;20048;-67
2022/01/03 08:41:25;;;;;;;1.02;0.60;;;15.20;99.90;;;;;;5003075;28;20118;-67
2022/01/03 08:43:51;;;;;;;6.72;1.58;;;15.80;99.90;;;;;;5003549;28;20033;-68
2022/01/03 08:46:18;;;;;;;3.42;1.23;;;16.40;98.60;;;;;;5004737;28;20026;-67
2022/01/03 08:48:43;;;;;;;2.13;0.80;;;16.90;94.60;;;;;;5005831;28;20028;-68
2022/01/03 08:51:09;;;;;;;2.67;0.85;;;17.20;91.80;;;;;;5001971;28;20028;-67
2022/01/03 08:53:35;;;;;;;2.38;0.63;;;17.20;85.20;;;;;;5002460;28;20041;-67
2022/01/03 08:56:01;;;;;;;3.83;0.80;;;17.10;89.10;;;;;;5002525;28;20026;-67
2022/01/03 08:58:26;;;;;;;2.20;0.70;;;17.00;95.60;;;;;;5000289;28;20031;-67
2022/01/03 09:00:52;;;;;;;1.65;0.80;;;17.00;92.20;;;;;;5001541;28;20104;-66
2022/01/03 09:03:19;;;;;;;2.42;0.77;;;17.20;95.70;;;;;;5006464;28;20038;-67
2022/01/03 09:05:45;;;;;;;1.98;0.70;;;17.80;87.30;;;;;;5002449;28;20028;-67
2022/01/03 09:08:12;;;;;;;4.07;0.80;;;18.70;77.70;;;;;;5001020;28;20019;-67
2022/01/03 09:10:39;;;;;;;2.20;0.65;;;19.50;69.70;;;;;;5002830;28;20026;-65
2022/01/03 09:13:05;;;;;;;2.17;0.82;;;19.90;70.60;;;;;;5002823;28;20031;-65
2022/01/03 09:15:31;;;;;;;1.42;0.70;;;20.30;69.00;;;;;;5000020;28;20111;-65
2022/01/03 09:17:57;;;;;;;2.33;0.60;;;20.70;68.80;;;;;;5002741;28;20014;-65
2022/01/03 09:20:23;;;;;;;1.63;0.60;;;21.00;65.50;;;;;;5000891;28;20544;-65
2022/01/03 09:22:52;;;;;;;2.72;0.80;;;21.20;64.20;;;;;;5001922;28;20056;-65
2022/01/03 09:30:41;;;;;;;1.75;0.60;;;19.50;66.50;;;;;;5004197;28;20083;-67
2022/01/03 09:33:07;;;;;;;2.80;0.65;;;18.30;73.90;;;;;;5001380;28;20433;-67
2022/01/03 09:35:43;;;;;;;4.28;0.60;;;17.30;81.30;;;;;;5002651;28;20033;-67
2022/01/03 09:38:09;;;;;;;3.97;0.77;;;16.40;94.40;;;;;;4998519;28;20452;-68
2022/01/03 09:40:36;;;;;;;3.58;0.80;;;15.70;95.50;;;;;;5001650;28;20026;-67
2022/01/03 09:43:02;;;;;;;3.97;1.40;;;15.10;99.90;;;;;;5002106;28;20060;-67
2022/01/03 09:45:32;;;;;;;3.72;1.05;;;15.10;99.90;;;;;;4999942;28;20033;-67
2022/01/03 09:48:00;;;;;;;1.98;0.98;;;15.20;99.90;;;;;;4999823;28;20109;-67
2022/01/03 09:50:26;;;;;;;3.03;0.80;;;15.40;99.90;;;;;;5000866;28;20026;-67
2022/01/03 09:52:51;;;;;;;3.90;1.20;;;15.40;99.90;;;;;;5001297;28;20413;-68
2022/01/03 09:55:19;;;;;;;3.60;0.80;;;15.20;99.90;;;;;;5003094;28;20785;-69
2022/01/03 09:57:46;;;;;;;2.60;0.63;;;15.00;99.90;;;;;;5000038;28;20028;-68
2022/01/03 10:00:22;;;;;;;3.13;0.95;;;14.90;99.90;;;;;;4996800;28;20053;-67
2022/01/03 10:02:48;;;;;;;2.15;0.60;;;14.70;99.90;;;;;;5005022;28;20516;-68
2022/01/03 10:05:14;;;;;;;2.53;0.77;;;14.40;99.90;;;;;;5017983;28;20520;-67
2022/01/03 10:07:40;;;;;;;5.43;1.10;;;14.40;99.90;;;;;;5001194;28;20034;-68
2022/01/03 10:10:18;;;;;;;2.42;0.85;;;14.50;99.90;;;;;;5005158;28;20026;-68
2022/01/03 10:12:44;;;;;;;4.78;1.10;;;14.70;99.90;;;;;;5000146;28;20025;-67
2022/01/03 10:15:18;;;;;;;2.60;0.80;;;14.70;99.90;;;;;;4999882;28;20034;-66
2022/01/03 10:17:47;;;;;;;6.40;0.90;;;15.10;99.90;;;;;;4996466;28;20042;-68
2022/01/03 10:20:14;;;;;;;2.83;1.00;;;15.40;99.90;;;;;;4994021;28;20121;-67
2022/01/03 10:22:42;;;;;;;3.00;0.98;;;15.40;99.90;;;;;;5004481;28;20038;-66
2022/01/03 10:25:23;;;;;;;4.00;1.95;;;15.40;99.90;;;;;;5004340;28;20030;-67
2022/01/03 10:27:59;;;;;;;2.95;1.00;;;15.30;99.90;;;;;;4999655;28;20064;-67
2022/01/03 10:30:50;;;;;;;6.25;2.38;;;15.10;99.90;;;;;;4998759;28;20029;-66
2022/01/03 10:33:21;;;;;;;5.00;1.00;;;14.80;99.90;;;;;;4995987;28;20389;-65
2022/01/03 10:35:53;;;;;;;3.13;0.90;;;14.50;99.90;;;;;;4997735;28;20038;-67
2022/01/03 10:38:37;;;;;;;5.95;0.98;;;14.30;99.90;;;;;;5001789;28;20121;-66
2022/01/03 10:41:11;;;;;;;4.75;1.48;;;13.90;99.90;;;;;;4997365;28;20065;-66
2022/01/03 10:43:37;;;;;;;2.88;0.90;;;13.50;99.90;;;;;;5003301;28;20498;-65
2022/01/03 10:46:18;;;;;;;3.05;1.30;;;13.30;99.90;;;;;;4998413;28;20045;-65
2022/01/03 10:48:44;;;;;;;5.05;1.10;;;13.50;99.90;;;;;;5002456;28;20026;-65
2022/01/03 10:51:10;;;;;;;3.55;0.80;;;14.10;99.90;;;;;;5000751;28;20029;-65
2022/01/03 10:53:41;;;;;;;4.25;1.40;;;14.80;99.90;;;;;;5005556;28;20440;-67
2022/01/03 10:56:38;;;;;;;6.80;1.65;;;15.40;99.90;;;;;;5004944;28;20045;-65
2022/01/03 10:59:18;;;;;;;3.30;1.00;;;15.80;95.00;;;;;;5021357;28;20069;-66
2022/01/03 11:01:48;;;;;;;4.85;1.42;;;16.10;94.00;;;;;;5019585;28;20421;-66
2022/01/03 11:04:35;;;;;;;7.67;1.00;;;16.20;91.00;;;;;;5000727;28;20042;-65
2022/01/03 11:13:15;;;;;;;4.53;1.17;;;15.00;92.00;;;;;;5004414;28;20115;-61
2022/01/03 11:15:55;;;;;;;4.22;1.27;;;14.60;92.20;;;;;;5003155;28;20042;-61
2022/01/03 11:18:22;;;;;;;5.85;1.23;;;14.40;92.60;;;;;;5002928;28;20485;-62
2022/01/03 11:21:00;;;;;;;7.15;1.25;;;14.30;92.50;;;;;;5005393;28;20037;-61
2022/01/03 11:23:26;;;;;;;5.07;2.58;;;14.10;93.70;;;;;;5003749;28;20025;-60
2022/01/03 11:25:54;;;;;;;7.20;1.60;;;14.10;93.90;;;;;;5003469;28;20120;-65
2022/01/03 11:28:28;;;;;;;4.68;1.27;;;14.00;93.60;;;;;;5004983;28;20117;-65
2022/01/03 11:30:54;;;;;;;6.03;1.30;;;13.90;92.40;;;;;;5008161;28;20034;-65
2022/01/03 11:33:20;;;;;;;8.10;1.70;;;13.70;93.50;;;;;;5005312;28;20026;-65
2022/01/03 11:35:48;;;;;;;5.85;1.25;;;13.50;94.90;;;;;;5006643;28;20037;-65
2022/01/03 11:38:22;;;;;;;5.25;1.70;;;13.30;94.40;;;;;;5002137;28;20026;-65
2022/01/03 11:40:49;;;;;;;4.35;1.17;;;13.10;94.50;;;;;;5006033;28;20037;-65
2022/01/03 11:43:16;;;;;;;3.47;1.88;;;13.00;94.60;;;;;;5003191;28;20033;-65
2022/01/03 11:45:42;;;;;;;6.28;1.25;;;12.80;94.60;;;;;;5006218;28;20033;-65
2022/01/03 11:48:11;;;;;;;8.50;1.50;;;12.60;95.70;;;;;;5006521;28;20026;-65
2022/01/03 11:50:37;;;;;;;5.72;1.20;;;12.50;96.20;;;;;;5005460;28;20038;-65
2022/01/03 11:53:05;;;;;;;9.65;1.27;;;12.30;96.00;;;;;;5002636;28;20088;-65
2022/01/03 11:55:34;;;;;;;6.03;1.63;;;12.10;96.90;;;;;;5004833;28;20034;-65
2022/01/03 12:03:47;;;;;;;6.30;1.30;;;11.70;99.20;;;;;;5004520;28;20040;-64
2022/01/03 12:06:24;;;;;;;4.18;1.00;;;11.80;99.60;;;;;;5002066;28;20038;-65
2022/01/03 12:08:55;;;;;;;10.63;1.30;;;11.90;99.90;;;;;;5003814;28;20490;-65
2022/01/03 12:11:23;;;;;;;7.60;1.25;;;12.30;99.30;;;;;;5000211;28;20104;-65
2022/01/03 12:14:17;;;;;;;4.57;1.40;;;12.70;99.00;;;;;;5003162;28;20022;-64
2022/01/03 12:17:02;;;;;;;5.55;1.20;;;13.10;97.00;;;;;;5001917;28;20538;-65
2022/01/03 12:19:47;;;;;;;6.50;1.17;;;13.30;95.30;;;;;;5003207;28;20023;-65
2022/01/03 12:22:21;;;;;;;3.75;1.13;;;13.30;93.90;;;;;;5005749;28;20026;-64
2022/01/03 12:25:14;;;;;;;7.50;2.13;;;13.30;94.40;;;;;;5004788;28;20026;-64
2022/01/03 12:27:40;;;;;;;5.03;0.90;;;13.10;95.00;;;;;;4995856;28;20084;-65
2022/01/03 12:30:20;;;;;;;5.10;1.35;;;13.00;95.50;;;;;;5003273;28;20031;-64
2022/01/03 12:33:07;;;;;;;4.07;0.77;;;12.80;96.80;;;;;;4998934;28;20037;-64
2022/01/03 12:35:38;;;;;;;3.70;1.00;;;12.70;97.80;;;;;;5015996;28;20030;-65
2022/01/03 12:38:04;;;;;;;5.28;0.90;;;12.50;99.90;;;;;;5002044;28;20026;-65
2022/01/03 12:40:34;;;;;;;4.90;0.85;;;12.40;99.90;;;;;;5002573;28;20509;-64
2022/01/03 12:43:05;;;;;;;3.65;1.10;;;12.30;99.90;;;;;;5004230;28;20050;-64
2022/01/03 12:45:32;;;;;;;5.97;1.33;;;12.10;99.90;;;;;;4997721;28;20104;-65
2022/01/03 12:48:20;;;;;;;5.97;1.70;;;12.00;99.90;;;;;;5001170;28;20030;-65
2022/01/03 12:50:51;;;;;;;3.13;0.90;;;11.80;99.90;;;;;;4999445;28;20153;-64
2022/01/03 12:53:23;;;;;;;8.40;1.38;;;11.70;99.90;;;;;;5002013;28;20523;-64
2022/01/03 12:56:22;;;;;;;5.40;1.60;;;11.60;99.90;;;;;;5000474;28;20466;-64
2022/01/03 12:58:52;;;;;;;5.18;1.15;;;11.50;99.90;;;;;;4995201;28;20060;-64
2022/01/03 13:01:28;;;;;;;3.88;1.10;;;11.50;99.90;;;;;;4996765;28;20030;-65
2022/01/03 13:04:20;;;;;;;3.63;1.17;;;11.40;99.90;;;;;;4995653;28;20030;-64
2022/01/03 13:07:00;;;;;;;9.48;1.40;;;11.30;99.90;;;;;;4996441;28;20037;-64
2022/01/03 13:09:27;;;;;;;6.10;2.10;;;11.30;99.90;;;;;;4997645;28;20081;-65
2022/01/03 13:11:56;;;;;;;9.68;2.00;;;11.20;99.90;;;;;;5000100;28;20041;-64
2022/01/03 13:14:23;;;;;;;6.45;1.42;;;11.00;99.90;;;;;;4998157;28;20042;-64
2022/01/03 13:16:51;;;;;;;6.38;1.00;;;11.00;99.90;;;;;;5001799;28;20396;-64
2022/01/03 13:19:29;;;;;;;8.27;2.63;;;10.80;99.90;;;;;;5002517;28;20022;-64
2022/01/03 13:21:58;;;;;;;4.88;1.10;;;10.70;99.90;;;;;;5000661;28;20043;-64
2022/01/03 13:24:54;;;;;;;6.60;1.85;;;10.60;99.90;;;;;;5004498;28;20030;-64
2022/01/03 13:27:22;;;;;;;3.40;1.27;;;10.50;99.90;;;;;;5004175;28;20053;-64
2022/01/03 13:29:59;;;;;;;5.97;1.25;;;10.40;99.90;;;;;;5002405;28;20028;-64